Grande Pointe, Florida
Current Conditions -  °F | °C
As of 1:53 PM on Thursday 30 Oct 2014 (Local Time) from KECP Reporting Station
Clear Clear  
Wind Chill: 74°   Ceiling: Unl
Heat Index: 74°   Visibility: 10mi
Dew Point: 43°   Wind: 12mph
Humidity: 33%   Direction: 340°NNW
Pressure: 29.97"   Gusts: NA
Location:  30.3525°N, 85.9093°W
Report Text: KECP 301853Z 34010KT 10SM CLR 23/06 A2997 RMK AO2 SLP161 T02330061
Loading
Personal Weather Stations






























Interactive Weather Map
Tropical Storm Tracking
New forecast layout! Learn more

10-Day Weather Forecast

Advertisements
Track Severe Weather on mobile